createdAt,value
2018-12-04T00:01:27.919Z,100.00
2018-12-04T00:03:56.072Z,100.00
2018-12-04T00:06:24.184Z,100.00
2018-12-04T00:08:52.363Z,100.00
2018-12-04T00:11:20.513Z,100.00
2018-12-04T00:13:49.588Z,100.00
2018-12-04T00:16:17.751Z,100.00
2018-12-04T00:18:45.878Z,100.00
2018-12-04T00:21:14.038Z,100.00
2018-12-04T00:23:42.536Z,100.00
2018-12-04T00:26:10.680Z,100.00
2018-12-04T00:28:38.840Z,100.00
2018-12-04T00:31:06.968Z,100.00
2018-12-04T00:33:35.092Z,100.00
2018-12-04T00:36:03.248Z,100.00
2018-12-04T00:38:31.372Z,100.00
2018-12-04T00:40:59.524Z,100.00
2018-12-04T00:43:27.627Z,100.00
2018-12-04T00:45:55.754Z,100.00
2018-12-04T00:48:23.880Z,100.00
2018-12-04T00:50:52.005Z,100.00
2018-12-04T00:53:20.123Z,100.00
2018-12-04T00:55:48.265Z,100.00
2018-12-04T00:58:16.402Z,100.00
2018-12-04T01:00:44.598Z,100.00
2018-12-04T01:03:12.772Z,100.00
2018-12-04T01:05:40.884Z,100.00
2018-12-04T01:08:08.979Z,100.00
2018-12-04T01:10:37.108Z,100.00
2018-12-04T01:13:05.281Z,100.00
2018-12-04T01:15:33.399Z,100.00
2018-12-04T01:18:01.517Z,100.00
2018-12-04T01:20:29.711Z,100.00
2018-12-04T01:22:57.843Z,100.00
2018-12-04T01:25:26.026Z,100.00
2018-12-04T01:27:54.207Z,100.00
2018-12-04T01:30:22.363Z,100.00
2018-12-04T01:32:50.470Z,100.00
2018-12-04T01:35:18.636Z,100.00
2018-12-04T01:37:46.782Z,100.00
2018-12-04T01:40:14.966Z,100.00
2018-12-04T01:42:43.134Z,100.00
2018-12-04T01:45:11.283Z,100.00
2018-12-04T01:47:39.390Z,100.00
2018-12-04T01:50:07.591Z,100.00
2018-12-04T01:52:35.697Z,100.00
2018-12-04T01:55:03.770Z,100.00
2018-12-04T01:57:31.880Z,100.00
2018-12-04T01:59:59.973Z,100.00
2018-12-04T02:02:28.162Z,100.00
2018-12-04T02:04:56.258Z,100.00
2018-12-04T02:07:24.378Z,100.00
2018-12-04T02:09:52.568Z,100.00
2018-12-04T02:12:20.662Z,100.00
2018-12-04T02:14:48.749Z,100.00
2018-12-04T02:17:16.862Z,100.00
2018-12-04T02:19:44.945Z,100.00
2018-12-04T02:22:13.078Z,100.00
2018-12-04T02:24:41.172Z,100.00
2018-12-04T02:27:09.229Z,100.00
2018-12-04T02:29:37.328Z,100.00
2018-12-04T02:32:05.417Z,100.00
2018-12-04T02:34:33.551Z,100.00
2018-12-04T02:37:01.627Z,100.00
2018-12-04T02:39:29.722Z,100.00
2018-12-04T02:41:57.798Z,100.00
2018-12-04T02:44:25.915Z,100.00
2018-12-04T02:46:54.006Z,100.00
2018-12-04T02:49:22.137Z,100.00
2018-12-04T02:51:50.207Z,100.00
2018-12-04T02:54:18.290Z,100.00
2018-12-04T02:56:46.387Z,100.00
2018-12-04T02:59:14.459Z,100.00
2018-12-04T03:01:42.929Z,100.00
2018-12-04T03:04:11.019Z,100.00
2018-12-04T03:06:39.115Z,100.00
2018-12-04T03:09:07.771Z,100.00
2018-12-04T03:11:35.892Z,100.00
2018-12-04T03:14:03.984Z,100.00
2018-12-04T03:16:32.115Z,100.00
2018-12-04T03:19:00.212Z,100.00
2018-12-04T03:21:28.362Z,100.00
2018-12-04T03:23:56.473Z,100.00
2018-12-04T03:26:24.608Z,100.00
2018-12-04T03:28:52.699Z,100.00
2018-12-04T03:31:20.817Z,100.00
2018-12-04T03:33:48.979Z,100.00
2018-12-04T03:36:17.142Z,100.00
2018-12-04T03:38:45.272Z,100.00
2018-12-04T03:41:13.417Z,100.00
2018-12-04T03:43:41.566Z,100.00
2018-12-04T03:46:09.656Z,100.00
2018-12-04T03:48:37.766Z,100.00
2018-12-04T03:51:05.887Z,100.00
2018-12-04T03:53:34.018Z,100.00
2018-12-04T03:56:02.158Z,100.00
2018-12-04T03:58:30.293Z,100.00
2018-12-04T04:00:58.390Z,100.00
2018-12-04T04:03:26.488Z,100.00
2018-12-04T04:05:54.558Z,100.00
2018-12-04T04:08:22.673Z,100.00
2018-12-04T04:10:50.736Z,100.00
2018-12-04T04:13:18.845Z,100.00
2018-12-04T04:15:46.924Z,100.00
2018-12-04T04:18:15.055Z,100.00
2018-12-04T04:20:43.149Z,100.00
2018-12-04T04:23:11.271Z,100.00
2018-12-04T04:25:39.977Z,100.00
2018-12-04T04:28:08.090Z,100.00
2018-12-04T04:30:36.241Z,100.00
2018-12-04T04:33:04.379Z,100.00
2018-12-04T04:35:32.495Z,100.00
2018-12-04T04:38:00.570Z,100.00
2018-12-04T04:40:28.668Z,100.00
2018-12-04T04:42:56.734Z,100.00
2018-12-04T04:45:24.831Z,100.00
2018-12-04T04:47:52.966Z,100.00
2018-12-04T04:50:21.071Z,100.00
2018-12-04T04:52:49.169Z,100.00
2018-12-04T04:55:17.257Z,100.00
2018-12-04T04:57:45.367Z,100.00
2018-12-04T05:00:14.458Z,100.00
2018-12-04T05:02:42.496Z,100.00
2018-12-04T05:05:10.565Z,100.00
2018-12-04T05:07:38.678Z,100.00
2018-12-04T05:10:07.079Z,100.00
2018-12-04T05:12:35.190Z,100.00
2018-12-04T05:15:03.281Z,100.00
2018-12-04T05:17:31.334Z,100.00
2018-12-04T05:19:59.386Z,100.00
2018-12-04T05:22:27.450Z,100.00
2018-12-04T05:24:55.518Z,100.00
2018-12-04T05:27:23.583Z,100.00
2018-12-04T05:29:51.668Z,100.00
2018-12-04T05:32:19.758Z,100.00
2018-12-04T05:34:47.847Z,100.00
2018-12-04T05:37:15.911Z,100.00
2018-12-04T05:39:43.966Z,100.00
2018-12-04T05:42:12.023Z,100.00
2018-12-04T05:44:40.085Z,100.00
2018-12-04T05:47:08.162Z,100.00
2018-12-04T05:49:36.243Z,100.00
2018-12-04T05:52:04.287Z,100.00
2018-12-04T05:54:32.338Z,100.00
2018-12-04T05:57:00.443Z,100.00
2018-12-04T05:59:28.518Z,100.00
2018-12-04T06:01:56.624Z,100.00
2018-12-04T06:04:24.734Z,100.00
2018-12-04T06:06:52.835Z,100.00
2018-12-04T06:09:20.917Z,100.00
2018-12-04T06:11:49.008Z,100.00
2018-12-04T06:14:17.058Z,100.00
2018-12-04T06:16:45.114Z,100.00
2018-12-04T06:19:13.182Z,100.00
2018-12-04T06:21:41.290Z,100.00
2018-12-04T06:24:09.377Z,100.00
2018-12-04T06:26:37.470Z,100.00
2018-12-04T06:29:05.517Z,100.00
2018-12-04T06:31:33.581Z,100.00
2018-12-04T06:34:01.657Z,100.00
2018-12-04T06:36:29.770Z,100.00
2018-12-04T06:38:57.814Z,100.00
2018-12-04T06:41:25.905Z,100.00
2018-12-04T06:43:54.011Z,100.00
2018-12-04T06:46:22.111Z,100.00
2018-12-04T06:48:50.146Z,100.00
2018-12-04T06:51:18.239Z,100.00
2018-12-04T06:53:46.327Z,100.00
2018-12-04T06:56:14.426Z,100.00
2018-12-04T06:58:42.502Z,100.00
2018-12-04T07:01:11.515Z,100.00
2018-12-04T07:03:39.611Z,100.00
2018-12-04T07:06:07.724Z,100.00
2018-12-04T07:08:35.799Z,100.00
2018-12-04T07:11:03.886Z,100.00
2018-12-04T07:13:31.937Z,100.00
2018-12-04T07:16:00.010Z,100.00
2018-12-04T07:18:28.085Z,100.00
2018-12-04T07:20:56.150Z,100.00
2018-12-04T07:23:24.250Z,100.00
2018-12-04T07:25:52.341Z,100.00
2018-12-04T07:28:20.364Z,100.00
2018-12-04T07:30:48.426Z,100.00
2018-12-04T07:33:16.531Z,100.00
2018-12-04T07:35:44.621Z,100.00
2018-12-04T07:38:12.666Z,100.00
2018-12-04T07:40:40.779Z,100.00
2018-12-04T07:43:09.471Z,100.00
2018-12-04T07:45:36.934Z,100.00
2018-12-04T07:48:05.031Z,100.00
2018-12-04T07:50:33.073Z,100.00
2018-12-04T07:53:01.155Z,100.00
2018-12-04T07:55:29.259Z,100.00
2018-12-04T07:57:57.340Z,100.00
2018-12-04T08:00:25.391Z,100.00
2018-12-04T08:02:53.458Z,100.00
2018-12-04T08:05:21.586Z,100.00
2018-12-04T08:07:49.723Z,100.00
2018-12-04T08:10:17.845Z,100.00
2018-12-04T08:12:45.901Z,100.00
2018-12-04T08:15:13.982Z,100.00
2018-12-04T08:17:43.003Z,100.00
2018-12-04T08:20:10.121Z,100.00
2018-12-04T08:22:38.177Z,100.00
2018-12-04T08:25:06.369Z,100.00
2018-12-04T08:27:36.425Z,100.00
2018-12-04T08:30:05.702Z,100.00
2018-12-04T08:32:33.792Z,100.00
2018-12-04T08:35:01.848Z,100.00
2018-12-04T08:37:29.899Z,100.00
2018-12-04T08:39:58.008Z,99.87
2018-12-04T08:42:26.100Z,99.90
2018-12-04T08:44:54.168Z,100.00
2018-12-04T08:47:22.266Z,100.00
2018-12-04T08:49:50.331Z,100.00
2018-12-04T08:52:18.401Z,100.00
2018-12-04T08:54:46.490Z,100.00
2018-12-04T08:57:14.542Z,100.00
2018-12-04T08:59:43.146Z,100.00
2018-12-04T09:02:11.208Z,100.00
2018-12-04T09:04:39.280Z,100.00
2018-12-04T09:07:07.359Z,100.00
2018-12-04T09:09:35.440Z,99.24
2018-12-04T09:12:03.480Z,98.74
2018-12-04T09:14:31.551Z,97.63
2018-12-04T09:16:59.643Z,97.60
2018-12-04T09:19:27.759Z,97.21
2018-12-04T09:21:55.851Z,96.10
2018-12-04T09:24:23.887Z,96.78
2018-12-04T09:26:52.373Z,96.76
2018-12-04T09:29:20.800Z,96.85
2018-12-04T09:31:48.877Z,96.16
2018-12-04T09:34:16.937Z,96.01
2018-12-04T09:36:45.022Z,96.71
2018-12-04T09:39:13.081Z,95.89
2018-12-04T09:41:41.162Z,94.13
2018-12-04T09:44:09.235Z,95.07
2018-12-04T09:46:37.289Z,94.50
2018-12-04T09:49:05.351Z,93.09
2018-12-04T09:51:33.456Z,92.34
2018-12-04T09:54:01.637Z,91.32
2018-12-04T09:56:29.701Z,89.81
2018-12-04T09:58:57.786Z,89.63
2018-12-04T10:01:25.886Z,91.03
2018-12-04T10:03:54.074Z,89.08
2018-12-04T10:06:22.164Z,87.23
2018-12-04T10:08:50.215Z,85.72
2018-12-04T10:11:18.375Z,85.87
2018-12-04T10:13:46.474Z,87.23
2018-12-04T10:16:14.552Z,86.54
2018-12-04T10:18:47.686Z,85.67
2018-12-04T10:21:10.701Z,87.14
2018-12-04T10:23:39.516Z,88.46
2018-12-04T10:26:07.591Z,88.37
2018-12-04T10:28:35.651Z,86.46
2018-12-04T10:31:09.769Z,88.29
2018-12-04T10:33:38.129Z,88.32
2018-12-04T10:36:06.186Z,88.28
2018-12-04T10:38:34.242Z,88.09
2018-12-04T10:41:02.326Z,88.34
2018-12-04T10:43:30.448Z,86.77
2018-12-04T10:45:58.484Z,82.51
2018-12-04T10:48:26.550Z,84.01
2018-12-04T10:50:54.610Z,84.24
2018-12-04T10:53:22.693Z,82.14
2018-12-04T10:55:50.761Z,83.36
2018-12-04T10:58:18.830Z,82.53
2018-12-04T11:00:52.135Z,81.68
2018-12-04T11:03:24.381Z,80.29
2018-12-04T11:05:52.465Z,82.02
2018-12-04T11:08:20.521Z,81.49
2018-12-04T11:10:48.597Z,81.38
2018-12-04T11:13:16.649Z,81.23
2018-12-04T11:15:44.710Z,82.31
2018-12-04T11:18:12.748Z,82.29
2018-12-04T11:20:40.856Z,82.43
2018-12-04T11:23:08.933Z,80.68
2018-12-04T11:25:37.007Z,80.12
2018-12-04T11:28:05.035Z,81.26
2018-12-04T11:30:33.082Z,81.67
2018-12-04T11:33:01.127Z,81.63
2018-12-04T11:35:29.169Z,79.91
2018-12-04T11:37:57.830Z,80.39
2018-12-04T11:40:25.957Z,81.57
2018-12-04T11:42:53.986Z,80.58
2018-12-04T11:45:22.053Z,81.18
2018-12-04T11:47:50.162Z,80.56
2018-12-04T11:50:18.218Z,80.86
2018-12-04T11:52:46.277Z,81.02
2018-12-04T11:55:14.361Z,80.99
2018-12-04T11:57:42.437Z,80.95
2018-12-04T12:00:16.465Z,79.89
2018-12-04T12:02:44.567Z,78.16
2018-12-04T12:05:12.603Z,78.75
2018-12-04T12:07:40.658Z,80.23
2018-12-04T12:10:08.719Z,77.71
2018-12-04T12:12:36.763Z,78.52
2018-12-04T12:15:05.492Z,76.99
2018-12-04T12:17:33.533Z,76.57
2018-12-04T12:20:01.631Z,77.64
2018-12-04T12:22:29.679Z,78.59
2018-12-04T12:24:57.729Z,77.13
2018-12-04T12:27:25.798Z,78.08
2018-12-04T12:29:54.614Z,76.78
2018-12-04T12:32:21.921Z,77.75
2018-12-04T12:34:50.026Z,77.94
2018-12-04T12:37:18.146Z,77.25
2018-12-04T12:39:46.207Z,78.00
2018-12-04T12:42:14.278Z,78.66
2018-12-04T12:44:42.326Z,79.26
2018-12-04T12:47:10.390Z,79.71
2018-12-04T12:49:38.447Z,79.58
2018-12-04T12:52:06.483Z,78.80
2018-12-04T12:54:34.543Z,79.89
2018-12-04T12:57:02.558Z,79.90
2018-12-04T12:59:30.618Z,80.30
2018-12-04T13:01:58.700Z,80.51
2018-12-04T13:04:26.769Z,81.12
2018-12-04T13:06:54.850Z,80.88
2018-12-04T13:09:22.927Z,81.58
2018-12-04T13:11:50.990Z,81.53
2018-12-04T13:14:19.059Z,82.53
2018-12-04T13:16:47.109Z,82.14
2018-12-04T13:19:15.205Z,81.71
2018-12-04T13:21:43.294Z,82.97
2018-12-04T13:24:11.410Z,81.80
2018-12-04T13:26:39.489Z,80.59
2018-12-04T13:29:07.595Z,81.37
2018-12-04T13:31:35.665Z,80.82
2018-12-04T13:34:03.796Z,79.59
2018-12-04T13:36:31.813Z,79.30
2018-12-04T13:38:59.936Z,79.53
2018-12-04T13:41:27.982Z,79.97
2018-12-04T13:43:56.043Z,79.57
2018-12-04T13:46:24.087Z,79.42
2018-12-04T13:48:52.164Z,79.31
2018-12-04T13:51:20.250Z,79.56
2018-12-04T13:53:48.302Z,80.04
2018-12-04T13:56:16.369Z,78.51
2018-12-04T13:58:44.485Z,79.27
2018-12-04T14:01:12.553Z,79.76
2018-12-04T14:03:40.612Z,79.68
2018-12-04T14:06:08.667Z,79.27
2018-12-04T14:08:36.745Z,79.11
2018-12-04T14:11:04.794Z,78.87
2018-12-04T14:13:32.969Z,79.44
2018-12-04T14:16:01.020Z,79.59
2018-12-04T14:18:29.070Z,79.39
2018-12-04T14:20:57.141Z,80.04
2018-12-04T14:23:25.177Z,80.04
2018-12-04T14:25:53.246Z,79.46
2018-12-04T14:28:21.342Z,79.44
2018-12-04T14:30:49.409Z,80.05
2018-12-04T14:33:17.480Z,80.16
2018-12-04T14:35:45.566Z,79.22
2018-12-04T14:38:13.687Z,79.53
2018-12-04T14:40:41.718Z,79.84
2018-12-04T14:43:09.802Z,79.30
2018-12-04T14:45:37.878Z,79.90
2018-12-04T14:48:05.968Z,79.35
2018-12-04T14:50:34.047Z,80.87
2018-12-04T14:53:02.140Z,81.01
2018-12-04T14:55:30.208Z,80.94
2018-12-04T14:57:58.278Z,80.90
2018-12-04T15:00:26.398Z,81.14
2018-12-04T15:02:54.421Z,82.14
2018-12-04T15:05:22.508Z,81.87
2018-12-04T15:07:50.534Z,81.86
2018-12-04T15:10:18.602Z,82.00
2018-12-04T15:12:46.668Z,82.64
2018-12-04T15:15:14.718Z,82.63
2018-12-04T15:17:42.763Z,82.66
2018-12-04T15:20:10.821Z,83.02
2018-12-04T15:22:38.902Z,83.19
2018-12-04T15:25:06.980Z,83.12
2018-12-04T15:27:35.025Z,82.21
2018-12-04T15:30:03.116Z,82.90
2018-12-04T15:32:31.173Z,83.60
2018-12-04T15:34:59.255Z,83.48
2018-12-04T15:37:27.320Z,83.52
2018-12-04T15:39:55.430Z,83.77
2018-12-04T15:42:23.465Z,84.71
2018-12-04T15:44:51.534Z,83.16
2018-12-04T15:47:19.582Z,84.52
2018-12-04T15:49:47.694Z,84.62
2018-12-04T15:52:15.796Z,83.63
2018-12-04T15:54:43.904Z,82.21
2018-12-04T15:57:11.998Z,82.83
2018-12-04T15:59:40.122Z,83.60
2018-12-04T16:02:08.201Z,83.36
2018-12-04T16:04:36.262Z,83.94
2018-12-04T16:07:04.386Z,84.59
2018-12-04T16:09:32.411Z,84.73
2018-12-04T16:12:00.468Z,85.10
2018-12-04T16:14:28.526Z,85.46
2018-12-04T16:16:56.570Z,86.16
2018-12-04T16:19:24.647Z,87.16
2018-12-04T16:21:52.690Z,87.81
2018-12-04T16:24:20.754Z,88.12
2018-12-04T16:26:49.661Z,88.59
2018-12-04T16:29:17.729Z,89.29
2018-12-04T16:31:45.770Z,89.96
2018-12-04T16:34:13.854Z,90.20
2018-12-04T16:36:41.913Z,90.08
2018-12-04T16:39:09.993Z,90.87
2018-12-04T16:41:41.049Z,91.81
2018-12-04T16:44:09.106Z,91.26
2018-12-04T16:46:37.155Z,91.58
2018-12-04T16:49:05.226Z,92.04
2018-12-04T16:51:33.283Z,91.63
2018-12-04T16:54:01.341Z,92.19
2018-12-04T16:56:29.415Z,92.77
2018-12-04T16:58:57.487Z,92.95
2018-12-04T17:01:25.562Z,93.48
2018-12-04T17:03:53.640Z,93.78
2018-12-04T17:06:21.728Z,94.08
2018-12-04T17:08:49.778Z,94.28
2018-12-04T17:11:17.854Z,95.12
2018-12-04T17:13:45.914Z,95.21
2018-12-04T17:16:13.978Z,95.97
2018-12-04T17:18:42.018Z,96.16
2018-12-04T17:21:10.074Z,96.68
2018-12-04T17:23:39.046Z,96.98
2018-12-04T17:26:07.099Z,97.38
2018-12-04T17:28:35.175Z,97.27
2018-12-04T17:32:16.174Z,97.64
2018-12-04T17:34:43.578Z,97.85
2018-12-04T17:37:10.996Z,98.08
2018-12-04T17:39:38.509Z,98.74
2018-12-04T17:42:05.903Z,98.73
2018-12-04T17:44:40.042Z,98.92
2018-12-04T17:47:02.717Z,98.58
2018-12-04T17:49:30.180Z,98.58
2018-12-04T17:51:57.674Z,98.90
2018-12-04T17:54:25.091Z,98.93
2018-12-04T17:56:52.507Z,99.13
2018-12-04T17:59:19.934Z,98.98
2018-12-04T18:01:47.399Z,98.94
2018-12-04T18:04:14.814Z,98.99
2018-12-04T18:11:32.370Z,99.20
2018-12-04T18:13:59.869Z,99.31
2018-12-04T18:16:27.273Z,99.49
2018-12-04T18:18:54.686Z,99.82
2018-12-04T18:21:22.086Z,100.00
2018-12-04T18:26:22.225Z,100.00
2018-12-04T18:28:49.647Z,100.00
2018-12-04T18:31:17.049Z,100.00
2018-12-04T18:33:44.488Z,100.00
2018-12-04T18:36:12.403Z,100.00
2018-12-04T18:38:39.827Z,100.00
2018-12-04T18:41:07.658Z,100.00
2018-12-04T18:43:35.061Z,100.00
2018-12-04T18:46:02.490Z,100.00
2018-12-04T18:48:29.926Z,100.00
2018-12-04T18:50:57.325Z,100.00
2018-12-04T18:53:24.767Z,100.00
2018-12-04T18:55:52.162Z,100.00
2018-12-04T18:58:19.558Z,100.00
2018-12-04T19:00:46.988Z,100.00
2018-12-04T19:03:15.071Z,100.00
2018-12-04T19:05:42.486Z,100.00
2018-12-04T19:08:09.947Z,100.00
2018-12-04T19:10:37.389Z,100.00
2018-12-04T19:13:04.857Z,100.00
2018-12-04T19:15:32.395Z,100.00
2018-12-04T19:17:59.873Z,100.00
2018-12-04T19:20:27.370Z,100.00
2018-12-04T19:22:54.797Z,100.00
2018-12-04T19:25:22.222Z,100.00
2018-12-04T19:27:49.646Z,100.00
2018-12-04T19:30:17.091Z,100.00
2018-12-04T19:32:44.647Z,100.00
2018-12-04T19:35:12.081Z,100.00
2018-12-04T19:37:39.572Z,100.00
2018-12-04T19:40:08.534Z,100.00
2018-12-04T19:42:35.950Z,100.00
2018-12-04T19:45:03.502Z,100.00
2018-12-04T19:47:30.925Z,100.00
2018-12-04T19:49:58.478Z,100.00
2018-12-04T19:52:26.168Z,100.00
2018-12-04T19:54:53.614Z,100.00
2018-12-04T19:57:21.038Z,100.00
2018-12-04T19:59:48.462Z,100.00
2018-12-04T20:02:15.924Z,100.00
2018-12-04T20:04:43.363Z,100.00
2018-12-04T20:07:10.778Z,100.00
2018-12-04T20:09:38.631Z,100.00
2018-12-04T20:12:06.132Z,100.00
2018-12-04T20:14:33.575Z,100.00
2018-12-04T20:17:01.090Z,100.00
2018-12-04T20:19:28.872Z,100.00
2018-12-04T20:21:57.913Z,100.00
2018-12-04T20:24:25.396Z,100.00
2018-12-04T20:26:53.228Z,100.00
2018-12-04T20:29:20.751Z,100.00
2018-12-04T20:31:48.401Z,100.00
2018-12-04T20:34:15.826Z,100.00
2018-12-04T20:36:43.243Z,100.00
2018-12-04T20:39:10.870Z,100.00
2018-12-04T20:41:38.447Z,100.00
2018-12-04T20:44:05.866Z,100.00
2018-12-04T20:46:33.302Z,100.00
2018-12-04T20:49:00.701Z,100.00
2018-12-04T20:51:28.130Z,100.00
2018-12-04T20:53:55.554Z,100.00
2018-12-04T20:56:22.958Z,100.00
2018-12-04T20:58:50.525Z,100.00
2018-12-04T21:01:17.935Z,100.00
2018-12-04T21:03:46.317Z,100.00
2018-12-04T21:06:13.751Z,100.00
2018-12-04T21:08:41.250Z,100.00
2018-12-04T21:11:08.694Z,100.00
2018-12-04T21:13:36.098Z,100.00
2018-12-04T21:16:03.522Z,100.00
2018-12-04T21:18:30.934Z,100.00
2018-12-04T21:20:58.346Z,100.00
2018-12-04T21:23:25.750Z,100.00
2018-12-04T21:25:53.167Z,100.00
2018-12-04T21:28:22.694Z,100.00
2018-12-04T21:30:55.811Z,100.00
2018-12-04T21:33:28.938Z,100.00
2018-12-04T21:36:02.013Z,100.00
2018-12-04T21:38:35.178Z,100.00
2018-12-04T21:41:05.411Z,100.00
2018-12-04T21:43:38.358Z,100.00
2018-12-04T21:46:11.441Z,100.00
2018-12-04T21:48:38.873Z,100.00
2018-12-04T21:51:06.373Z,100.00
2018-12-04T21:53:33.817Z,100.00
2018-12-04T21:56:01.226Z,100.00
2018-12-04T21:58:30.017Z,100.00
2018-12-04T22:00:58.249Z,100.00
2018-12-04T22:03:25.653Z,100.00
2018-12-04T22:05:53.102Z,100.00
2018-12-04T22:08:20.613Z,100.00
2018-12-04T22:10:48.023Z,100.00
2018-12-04T22:13:15.425Z,100.00
2018-12-04T22:15:42.863Z,100.00
2018-12-04T22:18:11.802Z,100.00
2018-12-04T22:20:39.506Z,100.00
2018-12-04T22:23:06.911Z,100.00
2018-12-04T22:25:34.343Z,100.00
2018-12-04T22:28:01.742Z,100.00
2018-12-04T22:30:29.152Z,100.00
2018-12-04T22:32:56.583Z,100.00
2018-12-04T22:35:23.990Z,100.00
2018-12-04T22:37:51.393Z,100.00
2018-12-04T22:40:18.817Z,100.00
2018-12-04T22:42:46.215Z,100.00
2018-12-04T22:45:19.294Z,100.00
2018-12-04T22:47:46.706Z,100.00
2018-12-04T22:50:14.107Z,100.00
2018-12-04T22:52:41.526Z,100.00
2018-12-04T22:55:08.946Z,100.00
2018-12-04T22:57:36.362Z,100.00
2018-12-04T23:00:07.615Z,100.00
2018-12-04T23:02:35.043Z,100.00
2018-12-04T23:05:02.466Z,100.00
2018-12-04T23:07:29.877Z,100.00
2018-12-04T23:09:57.298Z,100.00
2018-12-04T23:12:24.726Z,100.00
2018-12-04T23:14:52.129Z,100.00
2018-12-04T23:17:19.533Z,100.00
2018-12-04T23:19:46.935Z,100.00
2018-12-04T23:22:14.375Z,100.00
2018-12-04T23:24:41.797Z,100.00
2018-12-04T23:27:09.209Z,100.00
2018-12-04T23:29:36.605Z,100.00
2018-12-04T23:32:04.042Z,100.00
2018-12-04T23:34:31.446Z,100.00
2018-12-04T23:36:58.851Z,100.00
2018-12-04T23:39:26.254Z,100.00
2018-12-04T23:41:53.682Z,100.00
2018-12-04T23:44:23.038Z,100.00
2018-12-04T23:46:50.454Z,100.00
2018-12-04T23:49:17.862Z,100.00
2018-12-04T23:52:16.002Z,100.00
2018-12-04T23:55:14.405Z,100.00
2018-12-04T23:57:41.826Z,100.00
